Bethel, ME (04217)

4:52 AM EDT on August 26, 2016 (GMT -0400)
Church Street | | Change Station

Elev 731 ft 44.40 °N, 70.79 °W | Updated 3 minutes ago

Overcast
Overcast
66.6 °F
Feels Like 66.6 °F
N
0.6
Wind Variable Wind from SW
Gusts 1.2 mph

Today
High -- | Low -- °F
--% Chance of Precip.
Yesterday
High -- | Low -- °F
Precip. -- in
Pressure 29.93 in
Visibility 8.0 miles
Clouds Mostly Cloudy 3200 ft
Overcast 4000 ft
Dew Point 65 °F
Humidity 94%
Rainfall Not available.
Snow Depth Not available.
5:59 AM 7:29 PM
Last Quarter, 36% visible
METAR KBML 260752Z AUTO 00000KT 8SM BKN032 OVC040 19/18 A2994 RMK AO2 SLP134 T01940178
Pressure 29.93 in
Visibility 8.0 miles
Clouds Mostly Cloudy 3200 ft
Overcast 4000 ft
Dew Point 65 °F
Humidity 94%
Rainfall Not available.
Snow Depth Not available.
5:59 AM 7:29 PM
Last Quarter, 36% visible
METAR KBML 260752Z AUTO 00000KT 8SM BKN032 OVC040 19/18 A2994 RMK AO2 SLP134 T01940178

10-Day Weather Forecast

Almanac

Astronomy

Aug. 26, 2016 Rise Set
Actual Time
Civil Twilight
Nautical Twilight
Astronomical Twilight
Moon
Length of Visible Light
Length of Day
Tomorrow will be .
, % of the Moon is Illuminated

Today's Extremes

State Highs State Lows

Community

WunderPhotos

Upload Photos

1,935,062 photos uploaded!

WunderBlog® & News

Nearby

Air Quality

  Air Quality AQ Index Pollutant
Not available.

Snow Depth

Station Depth Elevation

Earthquake Activity

City Distance Mag. Time & Date
Minimum magnitude displayed is 2.5.

Coastal Water Temperatures

Place Temperature

Stations

Nearby Weather Stations

Station Location Temp. Windchill Dew Point Humidity Wind Precip. Elev Updated Type
                   

Watches & Warnings

There are currently no watches in effect.